createdAt,value
2018-09-27T00:01:51.196Z,7.80
2018-09-27T00:06:46.142Z,7.80
2018-09-27T00:11:41.062Z,8.07
2018-09-27T00:16:35.969Z,8.20
2018-09-27T00:21:30.866Z,7.37
2018-09-27T00:26:25.761Z,7.97
2018-09-27T00:31:20.713Z,7.20
2018-09-27T00:36:15.638Z,7.60
2018-09-27T00:41:10.542Z,7.97
2018-09-27T00:46:05.509Z,7.33
2018-09-27T00:51:00.213Z,7.50
2018-09-27T00:55:55.613Z,8.33
2018-09-27T01:00:50.312Z,8.07
2018-09-27T01:05:45.147Z,7.00
2018-09-27T01:10:39.849Z,7.60
2018-09-27T01:15:34.581Z,8.10
2018-09-27T01:20:29.345Z,7.80
2018-09-27T01:25:24.079Z,7.93
2018-09-27T01:30:19.557Z,7.57
2018-09-27T01:35:14.272Z,7.67
2018-09-27T01:40:09.034Z,7.67
2018-09-27T01:45:03.791Z,8.03
2018-09-27T01:49:58.507Z,9.20
2018-09-27T01:54:53.250Z,9.73
2018-09-27T01:59:47.965Z,9.57
2018-09-27T02:04:42.677Z,9.10
2018-09-27T02:09:37.388Z,9.00
2018-09-27T02:14:32.096Z,9.27
2018-09-27T02:19:26.815Z,10.27
2018-09-27T02:24:21.582Z,9.50
2018-09-27T02:29:16.313Z,10.37
2018-09-27T02:34:11.023Z,8.10
2018-09-27T02:39:10.004Z,9.67
2018-09-27T02:44:04.782Z,10.07
2018-09-27T02:48:59.493Z,10.27
2018-09-27T02:53:54.222Z,11.03
2018-09-27T02:58:48.935Z,10.93
2018-09-27T03:03:43.705Z,11.50
2018-09-27T03:08:38.466Z,11.80
2018-09-27T03:13:33.229Z,13.27
2018-09-27T03:18:27.931Z,11.93
2018-09-27T03:23:22.682Z,11.17
2018-09-27T03:28:17.397Z,11.30
2018-09-27T03:33:12.180Z,11.60
2018-09-27T03:38:06.925Z,11.53
2018-09-27T03:43:01.637Z,11.47
2018-09-27T03:47:56.364Z,12.93
2018-09-27T03:52:51.084Z,12.90
2018-09-27T03:57:45.780Z,12.23
2018-09-27T04:02:40.551Z,13.53
2018-09-27T04:07:35.293Z,11.93
2018-09-27T04:12:29.992Z,13.23
2018-09-27T04:17:24.733Z,13.67
2018-09-27T04:22:19.571Z,14.00
2018-09-27T04:27:14.296Z,12.90
2018-09-27T04:32:09.029Z,14.23
2018-09-27T04:37:03.749Z,14.57
2018-09-27T04:41:58.471Z,13.20
2018-09-27T04:46:53.203Z,14.20
2018-09-27T04:51:47.984Z,13.90
2018-09-27T04:56:42.679Z,13.53
2018-09-27T05:01:37.429Z,14.43
2018-09-27T05:06:32.312Z,12.83
2018-09-27T05:11:26.981Z,13.37
2018-09-27T05:16:21.742Z,13.53
2018-09-27T05:21:16.473Z,14.00
2018-09-27T05:26:11.221Z,13.23
2018-09-27T05:31:06.009Z,13.47
2018-09-27T05:36:00.726Z,12.43
2018-09-27T05:40:55.477Z,13.53
2018-09-27T05:45:50.260Z,13.23
2018-09-27T05:50:44.990Z,13.53
2018-09-27T05:55:39.756Z,13.83
2018-09-27T06:00:34.670Z,14.13
2018-09-27T06:05:29.445Z,15.60
2018-09-27T06:10:24.194Z,15.13
2018-09-27T06:15:18.980Z,16.10
2018-09-27T06:20:13.720Z,14.10
2018-09-27T06:25:08.508Z,14.93
2018-09-27T06:30:03.370Z,14.70
2018-09-27T06:34:58.127Z,14.90
2018-09-27T06:39:52.846Z,15.43
2018-09-27T06:44:47.616Z,14.93
2018-09-27T06:49:42.361Z,14.73
2018-09-27T06:54:37.113Z,15.57
2018-09-27T06:59:31.868Z,16.23
2018-09-27T07:04:26.632Z,16.37
2018-09-27T07:09:21.429Z,16.13
2018-09-27T07:14:16.151Z,16.53
2018-09-27T07:19:11.082Z,16.87
2018-09-27T07:24:05.822Z,16.20
2018-09-27T07:29:01.644Z,15.63
2018-09-27T07:33:56.392Z,16.27
2018-09-27T07:38:51.173Z,16.13
2018-09-27T07:43:45.942Z,15.90
2018-09-27T07:48:40.741Z,16.87
2018-09-27T07:53:36.437Z,16.63
2018-09-27T07:58:31.171Z,14.40
2018-09-27T08:03:25.892Z,17.13
2018-09-27T08:08:20.646Z,15.60
2018-09-27T08:13:15.438Z,15.70
2018-09-27T08:18:10.208Z,17.40
2018-09-27T08:23:04.962Z,17.30
2018-09-27T08:27:59.714Z,17.60
2018-09-27T08:32:54.441Z,16.43
2018-09-27T08:37:49.229Z,13.67
2018-09-27T08:42:43.971Z,18.17
2018-09-27T08:47:38.785Z,13.90
2018-09-27T08:52:33.606Z,17.07
2018-09-27T08:57:28.436Z,16.57
2018-09-27T09:02:23.236Z,16.83
2018-09-27T09:07:18.066Z,15.60
2018-09-27T09:12:12.937Z,16.47
2018-09-27T09:17:07.734Z,14.60
2018-09-27T09:22:02.514Z,15.03
2018-09-27T09:26:57.328Z,15.40
2018-09-27T09:31:53.042Z,15.17
2018-09-27T09:36:47.825Z,15.60
2018-09-27T09:41:42.621Z,16.80
2018-09-27T09:46:37.520Z,17.87
2018-09-27T09:51:33.306Z,16.90
2018-09-27T09:56:28.251Z,18.63
2018-09-27T10:01:23.062Z,17.90
2018-09-27T10:06:17.861Z,16.63
2018-09-27T10:11:12.676Z,16.63
2018-09-27T10:16:07.484Z,15.90
2018-09-27T10:21:02.346Z,16.03
2018-09-27T10:25:57.141Z,18.10
2018-09-27T10:30:51.955Z,16.87
2018-09-27T10:35:46.967Z,16.37
2018-09-27T10:40:41.756Z,15.60
2018-09-27T10:45:36.662Z,14.27
2018-09-27T10:50:31.464Z,9.80
2018-09-27T10:55:26.283Z,8.17
2018-09-27T11:00:42.390Z,9.40
2018-09-27T11:05:53.774Z,10.67
2018-09-27T11:11:11.854Z,12.07
2018-09-27T11:26:51.450Z,11.60
2018-09-27T11:31:51.333Z,11.17
2018-09-27T11:36:46.149Z,11.93
2018-09-27T11:41:41.031Z,11.57
2018-09-27T11:46:35.794Z,11.53
2018-09-27T11:51:30.590Z,11.67
2018-09-27T11:56:25.451Z,12.67
2018-09-27T12:01:20.315Z,12.53
2018-09-27T12:06:15.134Z,11.57
2018-09-27T12:11:10.027Z,10.47
2018-09-27T14:36:27.620Z,4.50
2018-09-27T14:41:28.010Z,2.97
2018-09-27T15:10:13.183Z,3.63
2018-09-27T15:15:08.385Z,2.80
2018-09-27T15:20:03.430Z,2.83
2018-09-27T15:24:58.218Z,3.07
2018-09-27T15:29:53.051Z,3.10
2018-09-27T15:34:47.909Z,2.93
2018-09-27T15:39:42.707Z,3.50
2018-09-27T15:44:37.643Z,2.67
2018-09-27T15:49:32.525Z,2.80
2018-09-27T15:54:27.830Z,2.57
2018-09-27T15:59:22.698Z,2.50
2018-09-27T16:42:30.110Z,2.70
2018-09-27T17:29:54.054Z,4.30
2018-09-27T17:34:49.011Z,4.23
2018-09-27T17:39:43.868Z,4.87
2018-09-27T17:45:12.567Z,4.60
2018-09-27T18:01:27.355Z,4.93
2018-09-27T18:11:57.474Z,5.07
2018-09-27T18:27:56.835Z,5.27
2018-09-27T18:32:51.637Z,5.10
2018-09-27T18:37:46.539Z,4.80
2018-09-27T18:42:41.403Z,4.83
2018-09-27T18:47:36.266Z,4.77
2018-09-27T18:52:32.030Z,4.87
2018-09-27T18:57:26.947Z,5.47
2018-09-27T19:02:21.853Z,4.73
2018-09-27T19:07:16.733Z,5.43
2018-09-27T19:12:11.671Z,5.17
2018-09-27T19:17:06.858Z,5.27
2018-09-27T19:22:01.543Z,5.00
2018-09-27T19:26:56.397Z,5.37
2018-09-27T19:31:51.257Z,5.53
2018-09-27T19:36:46.182Z,5.97
2018-09-27T19:41:41.401Z,5.30
2018-09-27T19:46:36.348Z,5.53
2018-09-27T19:51:31.162Z,5.43
2018-09-27T19:56:26.021Z,5.63
2018-09-27T20:01:20.905Z,5.60
2018-09-27T20:06:15.761Z,5.20
2018-09-27T20:11:10.564Z,5.90
2018-09-27T20:16:05.495Z,5.87
2018-09-27T20:21:00.423Z,5.50
2018-09-27T20:25:55.277Z,5.60
2018-09-27T20:30:50.206Z,5.70
2018-09-27T20:35:45.082Z,5.80
2018-09-27T20:40:39.974Z,5.53
2018-09-27T20:45:34.965Z,5.77
2018-09-27T20:50:29.790Z,5.93
2018-09-27T20:55:24.619Z,5.40
2018-09-27T21:00:19.489Z,5.87
2018-09-27T21:05:14.318Z,5.70
2018-09-27T21:10:09.238Z,5.83
2018-09-27T21:15:04.109Z,5.97
2018-09-27T21:19:58.917Z,5.60
2018-09-27T21:24:53.775Z,6.10
2018-09-27T21:29:49.219Z,5.93
2018-09-27T21:34:44.023Z,5.43
2018-09-27T21:39:38.822Z,5.73
2018-09-27T21:44:33.767Z,5.20
2018-09-27T21:49:28.587Z,5.30
2018-09-27T21:54:23.570Z,5.17
2018-09-27T21:59:18.474Z,5.77
2018-09-27T22:04:13.331Z,5.70
2018-09-27T22:09:10.769Z,5.73
2018-09-27T22:14:05.679Z,5.60
2018-09-27T22:19:00.578Z,5.60
2018-09-27T22:23:56.030Z,5.33
2018-09-27T22:28:51.884Z,5.83
2018-09-27T22:33:47.787Z,6.13
2018-09-27T22:38:42.655Z,5.20
2018-09-27T22:43:37.477Z,5.70
2018-09-27T22:48:32.275Z,5.53
2018-09-27T22:53:27.031Z,5.80
2018-09-27T22:58:21.889Z,5.70
2018-09-27T23:03:16.921Z,6.60
2018-09-27T23:08:12.209Z,5.33
2018-09-27T23:13:06.982Z,6.13
2018-09-27T23:18:01.735Z,6.00
2018-09-27T23:22:56.569Z,6.80
2018-09-27T23:27:51.401Z,5.80
2018-09-27T23:32:46.165Z,5.93
2018-09-27T23:37:41.010Z,6.23
2018-09-27T23:42:36.335Z,6.03
2018-09-27T23:47:31.280Z,6.40
2018-09-27T23:52:26.185Z,6.37
2018-09-27T23:57:21.080Z,6.43
